메인 페이지
METAR-TAF:

METAR-TAF

공항 :

스리나가르, 인도

위도: 33-59-14N, 경도: 074-46-27E, 고도: 1655m

현재 날씨관측

예보는 1 시간 2분 전, 13:30시(UTC)에 발표되었습니다.
서남서3kt
온도 11°C
습도 62%
기압 1026 hPa
시정: 2500m
고도 10000ft 상공 구름 보통
고도 20000ft 상공 구름 많음
연기

METAR: VISR 191330Z 25003KT 2500 FU SCT100 BKN200 11/04 Q1026 TEMPO -RA

시각: 20:02 (14:32 UTC)


TAF: 누락

4,000개 이상의 공항 관측 자료 및 예보 (METAR 및 TAF 보고).

지도상에서 검색 가능한 기상관측소가 노란 점과 빨간 점으로 표시되어 있습니다.

기상관측소 명을 보려면 표시 위로 마우스를 이동하세요.

날씨 관측과 예보를 보려면 클릭하세요.

지도 변경 : 확대하려면 엑스 표시가 있는 녹색 버튼, 축소하려면 빼기 표시가 있는 녹색 버튼, 다음 페이지의 지도를 보려면 녹색 화살표를 클릭하세요.


METAR-TAF: